Time;durP1;ratioP1;P1;durP2;ratioP2;P2;SDS_P1;SDS_P2;PMS_P1;PMS_P2;Temp;Humidity;BMP_temperature;BMP_pressure;BME280_temperature;BME280_humidity;BME280_pressure;Samples;Min_cycle;Max_cycle;Signal;HPM_P1;HPM_P2
2023/03/13 00:01:14;;;;;;;;;;;;;;;13.93;42.65;99895.06;4939925;28;98086;-70
2023/03/13 00:03:40;;;;;;;;;;;;;;;13.92;42.46;99894.25;4911793;28;98543;-71
2023/03/13 00:06:07;;;;;;;;;;;;;;;13.92;42.22;99878.00;4908488;28;98040;-70
2023/03/13 00:08:33;;;;;;;;;;;;;;;13.92;42.22;99885.31;4925992;28;99795;-71
2023/03/13 00:11:05;;;;;;;;;;;;;;;13.92;42.29;99882.63;4938199;28;98451;-71
2023/03/13 00:13:31;;;;;;;;;;;;;;;13.93;42.57;99884.22;4924491;28;97992;-71
2023/03/13 00:16:02;;;;;;;;;;;;;;;13.93;42.27;99884.22;4928320;28;98164;-73
2023/03/13 00:18:28;;;;;;;;;;;;;;;13.92;42.34;99880.72;4926180;28;98919;-71
2023/03/13 00:20:59;;;;;;;;;;;;;;;13.92;42.23;99883.41;4923151;28;97907;-70
2023/03/13 00:23:25;;;;;;;;;;;;;;;13.92;42.19;99880.72;4909787;28;98080;-71
2023/03/13 00:25:59;;;;;;;;;;;;;;;13.93;42.62;99876.09;4913858;28;98040;-70
2023/03/13 00:28:26;;;;;;;;;;;;;;;13.92;42.64;99879.91;4923366;28;98118;-71
2023/03/13 00:31:04;;;;;;;;;;;;;;;13.92;42.45;99878.00;4906383;28;97920;-71
2023/03/13 00:33:32;;;;;;;;;;;;;;;13.93;42.37;99886.91;4907168;28;98063;-71
2023/03/13 00:35:59;;;;;;;;;;;;;;;13.92;42.56;99878.00;4942377;28;98192;-71
2023/03/13 00:38:27;;;;;;;;;;;;;;;13.93;42.72;99873.38;4927244;28;98141;-72
2023/03/13 00:41:04;;;;;;;;;;;;;;;13.93;42.26;99876.09;4910413;28;99945;-70
2023/03/13 00:43:30;;;;;;;;;;;;;;;13.92;42.57;99883.41;4943046;28;98910;-70
2023/03/13 00:45:57;;;;;;;;;;;;;;;13.93;42.31;99884.22;4906298;28;98245;-70
2023/03/13 00:48:23;;;;;;;;;;;;;;;13.93;42.55;99885.00;4922801;28;98318;-71
2023/03/13 00:50:50;;;;;;;;;;;;;;;13.93;42.35;99876.88;4907093;28;99882;-70
2023/03/13 00:53:16;;;;;;;;;;;;;;;13.93;42.38;99867.97;4910902;28;98022;-71
2023/03/13 00:55:59;;;;;;;;;;;;;;;13.93;42.36;99854.41;4930804;28;99705;-71
2023/03/13 00:58:26;;;;;;;;;;;;;;;13.93;42.26;99855.22;4908328;28;98217;-71
2023/03/13 01:00:52;;;;;;;;;;;;;;;13.93;42.21;99857.13;4928511;28;98200;-70
2023/03/13 01:03:19;;;;;;;;;;;;;;;13.94;42.26;99850.59;4901710;28;98032;-72
2023/03/13 01:05:45;;;;;;;;;;;;;;;13.93;42.72;99857.91;4924893;28;98232;-70
2023/03/13 01:08:12;;;;;;;;;;;;;;;13.94;42.57;99850.59;4915967;28;98175;-70
2023/03/13 01:10:38;;;;;;;;;;;;;;;13.93;42.48;99841.66;4923178;28;97844;-71
2023/03/13 01:13:05;;;;;;;;;;;;;;;13.93;42.42;99847.06;4923181;28;97926;-71
2023/03/13 01:15:35;;;;;;;;;;;;;;;13.94;42.43;99839.75;4911452;28;97709;-71
2023/03/13 01:18:01;;;;;;;;;;;;;;;13.94;42.71;99845.16;4912393;28;98470;-70
2023/03/13 01:20:29;;;;;;;;;;;;;;;13.93;42.35;99841.66;4921523;28;97948;-70
2023/03/13 01:22:55;;;;;;;;;;;;;;;13.94;42.61;99843.25;4907558;28;99437;-71
2023/03/13 01:25:21;;;;;;;;;;;;;;;13.93;42.63;99847.06;4924458;28;99807;-70
2023/03/13 01:27:48;;;;;;;;;;;;;;;13.93;42.40;99838.94;4940407;28;98301;-70
2023/03/13 01:30:14;;;;;;;;;;;;;;;13.94;42.48;99842.47;4923279;28;98192;-71
2023/03/13 01:32:41;;;;;;;;;;;;;;;13.94;42.52;99840.53;4920707;28;97942;-72
2023/03/13 01:35:08;;;;;;;;;;;;;;;13.95;42.43;99833.22;4913633;28;97840;-71
2023/03/13 01:37:34;;;;;;;;;;;;;;;13.94;42.67;99837.84;4913720;28;98218;-71
2023/03/13 01:40:00;;;;;;;;;;;;;;;13.94;42.42;99827.00;4926251;28;98876;-71
2023/03/13 01:42:26;;;;;;;;;;;;;;;13.94;42.36;99824.28;4942405;28;99184;-71
2023/03/13 01:44:54;;;;;;;;;;;;;;;13.95;42.57;99830.50;4916855;28;98243;-71
2023/03/13 01:47:20;;;;;;;;;;;;;;;13.94;42.27;99827.00;4928449;28;98233;-71
2023/03/13 01:49:47;;;;;;;;;;;;;;;13.95;42.38;99816.97;4910101;28;98279;-71
2023/03/13 01:52:20;;;;;;;;;;;;;;;13.95;42.61;99822.38;4922649;28;98218;-71
2023/03/13 01:54:51;;;;;;;;;;;;;;;13.94;42.48;99826.19;4924860;28;98125;-71
2023/03/13 01:57:25;;;;;;;;;;;;;;;13.93;42.33;99824.59;4925053;28;98012;-71
2023/03/13 02:00:15;;;;;;;;;;;;;;;13.93;42.45;99814.56;4914233;28;99447;-71
2023/03/13 02:02:43;;;;;;;;;;;;;;;13.93;42.67;99819.19;4934963;28;98151;-70
2023/03/13 02:05:09;;;;;;;;;;;;;;;13.92;42.51;99810.25;4911294;28;98215;-71
2023/03/13 02:07:40;;;;;;;;;;;;;;;13.93;42.68;99805.63;4904943;28;99503;-71
2023/03/13 02:10:10;;;;;;;;;;;;;;;13.92;42.67;99807.56;4911507;28;98029;-72
2023/03/13 02:12:38;;;;;;;;;;;;;;;13.92;42.50;99810.25;4911464;28;99365;-71
2023/03/13 02:15:11;;;;;;;;;;;;;;;13.91;42.76;99805.97;4911733;28;98022;-71
2023/03/13 02:17:37;;;;;;;;;;;;;;;13.92;42.57;99791.31;4907823;28;98535;-71
2023/03/13 02:20:04;;;;;;;;;;;;;;;13.91;42.67;99791.59;4908778;28;97893;-71
2023/03/13 02:22:42;;;;;;;;;;;;;;;13.91;42.78;99784.28;4916846;28;98401;-71
2023/03/13 02:25:11;;;;;;;;;;;;;;;13.91;42.41;99784.28;4923782;28;97827;-71
2023/03/13 02:27:37;;;;;;;;;;;;;;;13.92;42.44;99776.97;4925764;28;97971;-70
2023/03/13 02:30:07;;;;;;;;;;;;;;;13.91;42.45;99776.16;4910038;28;117332;-71
2023/03/13 02:32:33;;;;;;;;;;;;;;;13.90;42.39;99774.53;4901314;28;99382;-71
2023/03/13 02:35:03;;;;;;;;;;;;;;;13.89;42.53;99775.66;4909620;28;125198;-72
2023/03/13 02:37:30;;;;;;;;;;;;;;;13.90;42.53;99765.59;4924719;28;98401;-71
2023/03/13 02:39:56;;;;;;;;;;;;;;;13.89;42.43;99767.53;4938438;28;98116;-71
2023/03/13 02:42:22;;;;;;;;;;;;;;;13.88;42.69;99765.94;4908628;28;97928;-71
2023/03/13 02:44:50;;;;;;;;;;;;;;;13.89;42.51;99769.44;4904906;28;98126;-70
2023/03/13 02:47:23;;;;;;;;;;;;;;;13.88;42.32;99768.63;4923715;28;98296;-71
2023/03/13 02:49:49;;;;;;;;;;;;;;;13.88;42.40;99770.53;4904950;28;98405;-70
2023/03/13 02:52:21;;;;;;;;;;;;;;;13.87;42.61;99774.34;4909105;28;98938;-71
2023/03/13 02:54:48;;;;;;;;;;;;;;;13.86;42.89;99768.13;4940049;28;98007;-70
2023/03/13 02:57:14;;;;;;;;;;;;;;;13.86;42.47;99770.03;4903264;28;98015;-71
2023/03/13 02:59:40;;;;;;;;;;;;;;;13.85;42.41;99774.66;4923619;28;97897;-71
2023/03/13 03:02:07;;;;;;;;;;;;;;;13.86;42.39;99767.34;4935404;28;97978;-71
2023/03/13 03:04:33;;;;;;;;;;;;;;;13.85;42.65;99773.88;4923436;28;98047;-70
2023/03/13 03:06:59;;;;;;;;;;;;;;;13.85;42.82;99765.72;4907132;28;99664;-70
2023/03/13 03:09:26;;;;;;;;;;;;;;;13.85;43.03;99768.44;4911483;28;98252;-71
2023/03/13 03:11:52;;;;;;;;;;;;;;;13.85;42.77;99765.72;4911108;28;99368;-72
2023/03/13 03:14:18;;;;;;;;;;;;;;;13.84;42.55;99767.66;4923099;28;98257;-71
2023/03/13 03:16:45;;;;;;;;;;;;;;;13.85;42.54;99763.03;4934161;28;98566;-70
2023/03/13 03:19:11;;;;;;;;;;;;;;;13.84;42.80;99756.81;4913826;28;100145;-71
2023/03/13 03:21:38;;;;;;;;;;;;;;;13.85;42.85;99760.31;4912326;28;99835;-70
2023/03/13 03:24:04;;;;;;;;;;;;;;;13.85;42.49;99757.59;4940028;28;98183;-70
2023/03/13 03:26:30;;;;;;;;;;;;;;;13.85;42.46;99755.69;4910009;28;99376;-70
2023/03/13 03:28:56;;;;;;;;;;;;;;;13.86;42.75;99760.00;4912143;28;98102;-71
2023/03/13 03:31:22;;;;;;;;;;;;;;;13.86;42.90;99754.59;4904896;28;126678;-71
2023/03/13 03:33:48;;;;;;;;;;;;;;;13.87;42.44;99752.66;4907808;28;97905;-72
2023/03/13 03:36:16;;;;;;;;;;;;;;;13.87;42.40;99736.41;4926026;28;101485;-72
2023/03/13 03:38:43;;;;;;;;;;;;;;;13.87;42.56;99736.41;4911329;28;98221;-71
2023/03/13 03:41:10;;;;;;;;;;;;;;;13.87;42.53;99728.28;4908419;28;98020;-71
2023/03/13 03:43:36;;;;;;;;;;;;;;;13.88;42.62;99717.16;4926963;28;99722;-70
2023/03/13 03:46:02;;;;;;;;;;;;;;;13.88;42.68;99714.47;4927859;28;98799;-71
2023/03/13 03:48:29;;;;;;;;;;;;;;;13.87;42.84;99712.88;4924548;28;98221;-71
2023/03/13 03:50:55;;;;;;;;;;;;;;;13.89;42.54;99712.53;4907283;28;99361;-71
2023/03/13 03:53:21;;;;;;;;;;;;;;;13.89;42.63;99710.63;4922373;28;98955;-71
2023/03/13 03:55:47;;;;;;;;;;;;;;;13.89;42.46;99705.22;4924933;28;98090;-71
2023/03/13 03:58:13;;;;;;;;;;;;;;;13.89;42.44;99702.50;4912961;28;98364;-72
2023/03/13 04:00:42;;;;;;;;;;;;;;;13.89;42.42;99694.38;4909658;28;99245;-71
2023/03/13 04:03:08;;;;;;;;;;;;;;;13.89;42.87;99688.16;4921293;28;98015;-71
2023/03/13 04:05:34;;;;;;;;;;;;;;;13.89;42.81;99685.44;4911554;28;97972;-71
2023/03/13 04:08:00;;;;;;;;;;;;;;;13.90;42.72;99689.75;4921370;28;98754;-71
2023/03/13 04:10:27;;;;;;;;;;;;;;;13.89;42.73;99685.44;4943360;28;128287;-71
2023/03/13 04:12:53;;;;;;;;;;;;;;;13.89;42.72;99680.84;4918558;28;98328;-71
2023/03/13 04:15:19;;;;;;;;;;;;;;;13.90;42.46;99684.34;4925247;28;98139;-71
2023/03/13 04:17:45;;;;;;;;;;;;;;;13.89;42.54;99675.41;4911609;28;99611;-70
2023/03/13 04:20:13;;;;;;;;;;;;;;;13.90;42.58;99670.78;4927801;28;98637;-71
2023/03/13 04:22:39;;;;;;;;;;;;;;;13.90;42.57;99662.66;4912584;28;99077;-71
2023/03/13 04:25:06;;;;;;;;;;;;;;;13.89;42.47;99651.03;4905851;28;99513;-71
2023/03/13 04:27:33;;;;;;;;;;;;;;;13.88;42.95;99652.16;4924776;28;98521;-71
2023/03/13 04:29:59;;;;;;;;;;;;;;;13.89;42.63;99650.25;4926686;28;97898;-71
2023/03/13 04:32:25;;;;;;;;;;;;;;;13.88;42.87;99646.72;4938683;28;97874;-72
2023/03/13 04:34:52;;;;;;;;;;;;;;;13.88;42.63;99641.31;4910084;28;97887;-72
2023/03/13 04:37:18;;;;;;;;;;;;;;;13.88;42.80;99641.31;4936157;28;99673;-71
2023/03/13 04:39:44;;;;;;;;;;;;;;;13.87;42.52;99634.31;4929999;28;98013;-71
2023/03/13 04:42:11;;;;;;;;;;;;;;;13.87;42.81;99620.75;4938915;28;99083;-71
2023/03/13 04:44:37;;;;;;;;;;;;;;;13.88;42.56;99621.56;4926179;28;98180;-71
2023/03/13 04:47:03;;;;;;;;;;;;;;;13.87;42.67;99618.06;4926411;28;98013;-71
2023/03/13 04:49:29;;;;;;;;;;;;;;;13.88;42.62;99608.00;4903907;28;101166;-72
2023/03/13 04:51:56;;;;;;;;;;;;;;;13.87;42.74;99601.78;4931292;28;100020;-72
2023/03/13 04:54:22;;;;;;;;;;;;;;;13.87;42.99;99598.25;4910568;28;98159;-71
2023/03/13 04:56:48;;;;;;;;;;;;;;;13.87;42.52;99593.66;4908545;28;97928;-71
2023/03/13 04:59:14;;;;;;;;;;;;;;;13.87;42.51;99598.25;4920215;28;99408;-71
2023/03/13 05:01:41;;;;;;;;;;;;;;;13.88;42.63;99591.75;4927101;28;99987;-72
2023/03/13 05:04:07;;;;;;;;;;;;;;;13.87;42.53;99584.72;4942785;28;99864;-71
2023/03/13 05:06:33;;;;;;;;;;;;;;;13.87;42.63;99582.00;4909987;28;102344;-72
2023/03/13 05:09:00;;;;;;;;;;;;;;;13.88;43.16;99570.09;4925163;28;98094;-72
2023/03/13 05:11:26;;;;;;;;;;;;;;;13.87;42.54;99568.47;4927714;28;98262;-71
2023/03/13 05:13:52;;;;;;;;;;;;;;;13.87;42.75;99577.41;4919393;28;98672;-72
2023/03/13 05:16:19;;;;;;;;;;;;;;;13.87;42.59;99566.59;4910448;28;98269;-72
2023/03/13 05:18:45;;;;;;;;;;;;;;;13.88;42.77;99568.19;4929023;28;98294;-71
2023/03/13 05:21:11;;;;;;;;;;;;;;;13.89;42.58;99564.34;4909779;28;99315;-71
2023/03/13 05:23:38;;;;;;;;;;;;;;;13.90;42.95;99560.53;4937340;28;98377;-72
2023/03/13 05:26:05;;;;;;;;;;;;;;;13.90;42.73;99549.69;4901053;28;98401;-72
2023/03/13 05:28:31;;;;;;;;;;;;;;;13.93;42.83;99550.97;4923687;28;98758;-71
2023/03/13 05:30:57;;;;;;;;;;;;;;;13.94;42.59;99537.13;4915479;28;97987;-71
2023/03/13 05:33:23;;;;;;;;;;;;;;;13.96;42.80;99529.50;4906547;28;98489;-72
2023/03/13 05:35:49;;;;;;;;;;;;;;;14.00;42.66;99529.66;4920547;28;98329;-71
2023/03/13 05:38:15;;;;;;;;;;;;;;;14.01;42.61;99517.72;4916735;28;99588;-71
2023/03/13 05:40:41;;;;;;;;;;;;;;;14.05;42.56;99518.69;4937021;28;98087;-72
2023/03/13 05:43:08;;;;;;;;;;;;;;;14.09;42.69;99521.56;4906002;28;98484;-72
2023/03/13 05:45:34;;;;;;;;;;;;;;;14.11;42.45;99513.91;4918519;28;99706;-71
2023/03/13 05:48:00;;;;;;;;;;;;;;;14.13;42.87;99512.50;4918005;28;99681;-72
2023/03/13 05:50:26;;;;;;;;;;;;;;;14.16;42.40;99503.75;4938223;28;98041;-72
2023/03/13 05:52:52;;;;;;;;;;;;;;;14.19;42.46;99502.31;4915920;28;102428;-71
2023/03/13 05:55:19;;;;;;;;;;;;;;;14.22;42.63;99501.69;4902621;28;129680;-71
2023/03/13 05:57:46;;;;;;;;;;;;;;;14.23;42.81;99497.88;4906892;28;98377;-72
2023/03/13 06:00:13;;;;;;;;;;;;;;;14.25;42.79;99490.22;4906470;28;98155;-71
2023/03/13 06:02:40;;;;;;;;;;;;;;;14.29;42.43;99495.81;4909740;28;98156;-72
2023/03/13 06:05:06;;;;;;;;;;;;;;;14.32;42.56;99498.69;4921721;28;98969;-72
2023/03/13 06:07:32;;;;;;;;;;;;;;;14.34;42.49;99493.72;4911346;28;99925;-72
2023/03/13 06:09:58;;;;;;;;;;;;;;;14.36;42.70;99488.81;4905765;28;98235;-72
2023/03/13 06:12:25;;;;;;;;;;;;;;;14.39;42.66;99485.47;4907919;28;98091;-72
2023/03/13 06:14:51;;;;;;;;;;;;;;;14.41;42.72;99483.22;4938610;28;98409;-71
2023/03/13 06:17:17;;;;;;;;;;;;;;;14.43;42.76;99482.94;4883800;28;99649;-72
2023/03/13 06:19:45;;;;;;;;;;;;;;;14.45;42.74;99481.47;4940091;28;99989;-71
2023/03/13 06:22:11;;;;;;;;;;;;;;;14.47;42.44;99475.75;4907673;28;100883;-71
2023/03/13 06:24:37;;;;;;;;;;;;;;;14.49;42.59;99474.34;4915895;28;98108;-71
2023/03/13 06:27:03;;;;;;;;;;;;;;;14.54;42.35;99469.88;4918878;28;98567;-73
2023/03/13 06:29:29;;;;;;;;;;;;;;;14.57;42.72;99459.19;4907895;28;98134;-72
2023/03/13 06:31:55;;;;;;;;;;;;;;;14.62;42.44;99447.38;4908941;28;98039;-73
2023/03/13 06:34:21;;;;;;;;;;;;;;;14.68;42.23;99444.22;4909434;28;97963;-71
2023/03/13 06:36:47;;;;;;;;;;;;;;;14.75;42.44;99435.59;4911345;28;98142;-73
2023/03/13 06:39:13;;;;;;;;;;;;;;;14.85;42.51;99429.03;4920856;28;106457;-71
2023/03/13 06:41:40;;;;;;;;;;;;;;;14.93;42.34;99415.50;4937072;28;98312;-72
2023/03/13 06:44:06;;;;;;;;;;;;;;;15.01;42.12;99418.50;4937016;28;99337;-71
2023/03/13 06:46:32;;;;;;;;;;;;;;;15.05;42.47;99406.69;4922919;28;98415;-72
2023/03/13 06:49:03;;;;;;;;;;;;;;;15.09;42.52;99404.94;4906841;28;98041;-71
2023/03/13 06:51:29;;;;;;;;;;;;;;;15.12;42.15;99404.25;4928688;28;98204;-72
2023/03/13 06:53:55;;;;;;;;;;;;;;;15.14;42.35;99399.31;4912681;28;97880;-72
2023/03/13 06:56:21;;;;;;;;;;;;;;;15.17;42.30;99392.47;4911817;28;99435;-72
2023/03/13 06:58:48;;;;;;;;;;;;;;;15.19;42.30;99395.63;4914456;28;98040;-71
2023/03/13 07:01:15;;;;;;;;;;;;;;;15.21;42.44;99391.50;4931198;28;98118;-71
2023/03/13 07:03:41;;;;;;;;;;;;;;;15.30;42.33;99390.66;4936573;28;99081;-71
2023/03/13 07:06:07;;;;;;;;;;;;;;;15.39;42.16;99381.34;4910450;28;97915;-71
2023/03/13 07:08:34;;;;;;;;;;;;;;;15.51;42.20;99375.22;4924134;28;97995;-73
2023/03/13 07:11:02;;;;;;;;;;;;;;;15.60;42.08;99369.75;4912101;28;98408;-72
2023/03/13 07:13:28;;;;;;;;;;;;;;;15.62;42.06;99364.81;4922530;28;98327;-72
2023/03/13 07:15:55;;;;;;;;;;;;;;;15.62;42.20;99368.31;4911947;28;99738;-71
2023/03/13 07:18:21;;;;;;;;;;;;;;;15.65;42.26;99358.75;4938802;28;98332;-71
2023/03/13 07:20:54;;;;;;;;;;;;;;;15.70;42.20;99366.72;4923917;28;98271;-73
2023/03/13 07:23:21;;;;;;;;;;;;;;;15.73;42.31;99354.41;4907553;28;97970;-73
2023/03/13 07:25:58;;;;;;;;;;;;;;;15.76;42.18;99345.56;4926643;28;97987;-72
2023/03/13 07:28:25;;;;;;;;;;;;;;;15.81;42.08;99353.56;4941298;28;100159;-72
2023/03/13 07:30:51;;;;;;;;;;;;;;;15.84;42.24;99350.19;4910541;28;98144;-72
2023/03/13 07:33:18;;;;;;;;;;;;;;;15.87;42.20;99350.31;4911815;28;98092;-72
2023/03/13 07:35:51;;;;;;;;;;;;;;;15.91;42.03;99351.22;4910536;28;97950;-71
2023/03/13 07:38:17;;;;;;;;;;;;;;;15.87;42.32;99350.31;4923284;28;98274;-71
2023/03/13 07:40:48;;;;;;;;;;;;;;;15.83;42.48;99348.56;4922655;28;98294;-71
2023/03/13 07:43:14;;;;;;;;;;;;;;;15.81;42.23;99332.63;4909634;28;98277;-70
2023/03/13 07:45:50;;;;;;;;;;;;;;;15.86;42.24;99326.97;4928160;28;98331;-70
2023/03/13 07:48:16;;;;;;;;;;;;;;;15.92;42.28;99335.75;4925826;28;98296;-71
2023/03/13 07:50:42;;;;;;;;;;;;;;;15.88;42.26;99341.06;4914231;28;98245;-71
2023/03/13 07:53:08;;;;;;;;;;;;;;;15.84;42.29;99350.97;4914677;28;103409;-71
2023/03/13 07:55:35;;;;;;;;;;;;;;;15.85;42.29;99338.19;4928546;28;98061;-70
2023/03/13 07:58:01;;;;;;;;;;;;;;;15.92;42.09;99330.31;4916829;28;98117;-70
2023/03/13 08:00:27;;;;;;;;;;;;;;;15.93;42.28;99329.19;4954902;28;99788;-71
2023/03/13 08:02:54;;;;;;;;;;;;;;;15.92;42.39;99331.13;4907420;28;98445;-70
2023/03/13 08:05:20;;;;;;;;;;;;;;;15.95;42.15;99332.34;4911582;28;97985;-70
2023/03/13 08:07:46;;;;;;;;;;;;;;;15.99;42.27;99335.22;4909182;28;99139;-70
2023/03/13 08:10:12;;;;;;;;;;;;;;;15.97;42.09;99332.84;4921395;28;98236;-70
2023/03/13 08:12:39;;;;;;;;;;;;;;;15.91;42.23;99337.66;4905830;28;97952;-70
2023/03/13 08:15:05;;;;;;;;;;;;;;;15.85;42.26;99336.25;4908175;28;99321;-70
2023/03/13 08:17:32;;;;;;;;;;;;;;;15.85;42.43;99330.84;4927290;28;97937;-70
2023/03/13 08:19:58;;;;;;;;;;;;;;;15.88;42.20;99338.34;4932730;28;98163;-70
2023/03/13 08:22:25;;;;;;;;;;;;;;;15.91;42.40;99334.13;4906339;28;98020;-70
2023/03/13 08:24:51;;;;;;;;;;;;;;;15.91;42.44;99340.38;4917048;28;99856;-70
2023/03/13 08:27:17;;;;;;;;;;;;;;;15.90;42.35;99333.34;4906916;28;99109;-71
2023/03/13 08:29:43;;;;;;;;;;;;;;;15.90;42.45;99333.34;4923541;28;98091;-70
2023/03/13 08:32:10;;;;;;;;;;;;;;;15.88;42.53;99324.75;4908416;28;98260;-71
2023/03/13 08:34:37;;;;;;;;;;;;;;;15.84;42.50;99328.47;4906188;28;100466;-70
2023/03/13 08:37:03;;;;;;;;;;;;;;;15.80;42.43;99322.06;4919399;28;98091;-70
2023/03/13 08:39:29;;;;;;;;;;;;;;;15.74;42.52;99318.75;4907621;28;98206;-70
2023/03/13 08:41:55;;;;;;;;;;;;;;;15.71;42.34;99303.91;4905898;28;99696;-71
2023/03/13 08:44:21;;;;;;;;;;;;;;;15.69;42.53;99295.28;4908412;28;98056;-70
2023/03/13 08:46:48;;;;;;;;;;;;;;;15.68;42.48;99301.06;4911328;28;98080;-71
2023/03/13 08:49:16;;;;;;;;;;;;;;;15.66;42.54;99304.09;4923217;28;98034;-71
2023/03/13 08:51:42;;;;;;;;;;;;;;;15.65;42.43;99307.16;4905919;28;98328;-70
2023/03/13 08:54:09;;;;;;;;;;;;;;;15.64;42.75;99300.91;4907488;28;98080;-70
2023/03/13 08:56:35;;;;;;;;;;;;;;;15.64;42.61;99305.50;4921994;28;98320;-70
2023/03/13 08:59:02;;;;;;;;;;;;;;;15.60;42.50;99310.81;4931942;28;99204;-71
2023/03/13 09:01:30;;;;;;;;;;;;;;;15.56;42.74;99311.78;4901633;28;99220;-69
2023/03/13 09:03:56;;;;;;;;;;;;;;;15.53;42.55;99302.41;4905085;28;98338;-70
2023/03/13 09:06:22;;;;;;;;;;;;;;;15.54;42.77;99298.53;4916472;28;98187;-70
2023/03/13 09:08:49;;;;;;;;;;;;;;;15.54;42.78;99287.69;4907922;28;98261;-70
2023/03/13 09:11:17;;;;;;;;;;;;;;;15.56;42.89;99292.78;4907948;28;98056;-71
2023/03/13 09:13:45;;;;;;;;;;;;;;;15.56;42.69;99298.22;4901088;28;100779;-70
2023/03/13 09:16:15;;;;;;;;;;;;;;;15.53;42.68;99288.81;4922592;28;98448;-71
2023/03/13 09:18:41;;;;;;;;;;;;;;;15.53;42.40;99294.25;4920706;28;98128;-71
2023/03/13 09:21:15;;;;;;;;;;;;;;;15.51;42.76;99288.34;4905991;28;98072;-70
2023/03/13 09:23:42;;;;;;;;;;;;;;;15.52;42.71;99286.41;4895744;28;98870;-71
2023/03/13 09:26:08;;;;;;;;;;;;;;;15.56;42.57;99274.59;4907191;28;97892;-70
2023/03/13 09:28:34;;;;;;;;;;;;;;;15.64;42.46;99268.31;4922204;28;98083;-71
2023/03/13 09:31:08;;;;;;;;;;;;;;;15.66;42.67;99268.78;4909810;28;102160;-70
2023/03/13 09:33:34;;;;;;;;;;;;;;;15.70;42.60;99277.06;4915969;28;99547;-70
2023/03/13 09:36:01;;;;;;;;;;;;;;;15.73;42.56;99286.50;4903023;28;99919;-71
2023/03/13 09:38:26;;;;;;;;;;;;;;;15.73;42.44;99283.78;4938217;28;100469;-71
2023/03/13 09:40:53;;;;;;;;;;;;;;;15.74;42.56;99274.50;4901829;28;98007;-71
2023/03/13 09:43:26;;;;;;;;;;;;;;;15.80;42.38;99268.53;4906084;28;99442;-71
2023/03/13 09:45:53;;;;;;;;;;;;;;;15.79;42.53;99271.56;4936661;28;98516;-70
2023/03/13 09:48:59;;;;;;;;;;;;;;;15.79;42.66;99277.81;4909025;28;97937;-68
2023/03/13 09:51:35;;;;;;;;;;;;;;;15.83;42.68;99284.16;4858405;28;98233;-68
2023/03/13 09:54:28;;;;;;;;;;;;;;;15.89;42.47;99268.47;4874904;28;99510;-70
2023/03/13 09:56:57;;;;;;;;;;;;;;;15.90;42.55;99267.34;4889899;28;98090;-70
2023/03/13 09:59:42;;;;;;;;;;;;;;;15.90;42.68;99272.78;4927537;28;98092;-70
2023/03/13 10:02:21;;;;;;;;;;;;;;;15.94;42.61;99266.34;4923666;28;98151;-70
2023/03/13 10:05:01;;;;;;;;;;;;;;;16.01;42.55;99268.53;4919798;28;98071;-70
2023/03/13 10:07:27;;;;;;;;;;;;;;;16.13;42.31;99255.00;4913800;28;106743;-70
2023/03/13 10:09:53;;;;;;;;;;;;;;;16.34;42.29;99259.59;4934453;28;97961;-70
2023/03/13 10:12:22;;;;;;;;;;;;;;;16.41;42.28;99266.09;4920074;28;98701;-70
2023/03/13 10:15:13;;;;;;;;;;;;;;;16.54;42.08;99247.88;4915350;28;98038;-71
2023/03/13 10:17:40;;;;;;;;;;;;;;;16.63;42.10;99247.81;4934318;28;97980;-71
2023/03/13 10:20:26;;;;;;;;;;;;;;;16.63;42.19;99254.06;4906962;28;99510;-70
2023/03/13 10:23:01;;;;;;;;;;;;;;;16.64;42.18;99250.19;4911262;28;99837;-71
2023/03/13 10:25:35;;;;;;;;;;;;;;;16.70;42.14;99242.59;4941831;28;98214;-71
2023/03/13 10:28:01;;;;;;;;;;;;;;;16.68;42.19;99256.53;4922627;28;98233;-71
2023/03/13 10:30:39;;;;;;;;;;;;;;;16.72;42.26;99264.03;4935634;28;98544;-70
2023/03/13 10:33:11;;;;;;;;;;;;;;;16.87;42.12;99249.81;4906560;28;99664;-70
2023/03/13 10:35:39;;;;;;;;;;;;;;;17.09;42.04;99252.09;4935075;28;97981;-70
2023/03/13 10:38:10;;;;;;;;;;;;;;;17.25;41.84;99256.84;4921931;28;97947;-70
2023/03/13 10:40:36;;;;;;;;;;;;;;;17.35;41.81;99256.41;4905931;28;98035;-71
2023/03/13 10:43:16;;;;;;;;;;;;;;;17.43;41.77;99259.00;4900102;28;100561;-71
2023/03/13 10:45:42;;;;;;;;;;;;;;;17.66;41.64;99244.91;4934571;28;98163;-71
2023/03/13 10:48:22;;;;;;;;;;;;;;;17.85;41.44;99242.41;4934180;28;98143;-70
2023/03/13 10:50:50;;;;;;;;;;;;;;;18.12;41.34;99250.94;4905217;28;98020;-72
2023/03/13 10:53:23;;;;;;;;;;;;;;;18.42;41.21;99243.19;4903397;28;98142;-72
2023/03/13 10:55:52;;;;;;;;;;;;;;;18.40;41.29;99250.94;4921834;28;98323;-71
2023/03/13 10:58:22;;;;;;;;;;;;;;;18.46;41.35;99246.00;4919967;28;98500;-71
2023/03/13 11:00:48;;;;;;;;;;;;;;;18.46;41.54;99240.56;4903029;28;98190;-72
2023/03/13 11:03:21;;;;;;;;;;;;;;;18.48;41.56;99239.06;4922665;28;98166;-71
2023/03/13 11:06:00;;;;;;;;;;;;;;;18.52;41.67;99239.19;4907405;28;98103;-72
2023/03/13 11:08:34;;;;;;;;;;;;;;;18.61;41.64;99224.22;4935988;28;98081;-72
2023/03/13 11:11:04;;;;;;;;;;;;;;;18.63;41.65;99232.84;4919346;28;100067;-72
2023/03/13 11:13:34;;;;;;;;;;;;;;;18.60;41.68;99235.50;4911383;28;99457;-70
2023/03/13 11:16:25;;;;;;;;;;;;;;;18.54;41.76;99228.69;4926800;28;97957;-70
2023/03/13 11:18:58;;;;;;;;;;;;;;;18.51;42.06;99229.38;4905366;28;98217;-72
2023/03/13 11:21:36;;;;;;;;;;;;;;;18.44;41.96;99227.28;4936398;28;98334;-71
2023/03/13 11:24:15;;;;;;;;;;;;;;;18.35;42.24;99226.63;4918489;28;97969;-70
2023/03/13 11:26:47;;;;;;;;;;;;;;;18.27;42.08;99217.47;4934449;28;98111;-71
2023/03/13 11:29:16;;;;;;;;;;;;;;;18.24;42.24;99207.28;4923520;28;97966;-71
2023/03/13 11:31:53;;;;;;;;;;;;;;;18.20;42.34;99195.47;4925966;28;98283;-71
2023/03/13 11:34:41;;;;;;;;;;;;;;;18.17;42.51;99189.91;4921252;28;97931;-71
2023/03/13 11:37:15;;;;;;;;;;;;;;;18.17;42.28;99182.53;4921732;28;98934;-72
2023/03/13 11:39:59;;;;;;;;;;;;;;;18.22;42.16;99181.47;4911323;28;99298;-70
2023/03/13 11:42:39;;;;;;;;;;;;;;;18.38;42.11;99174.91;4922328;28;99239;-73
2023/03/13 11:45:43;;;;;;;;;;;;;;;18.57;41.98;99170.69;4938131;28;99400;-70
2023/03/13 11:48:23;;;;;;;;;;;;;;;18.56;42.05;99169.91;4953138;28;98061;-72
2023/03/13 11:50:59;;;;;;;;;;;;;;;18.67;41.81;99161.19;4923186;28;98247;-71
2023/03/13 11:54:03;;;;;;;;;;;;;;;18.84;41.80;99149.94;4938142;28;102123;-71
2023/03/13 11:56:31;;;;;;;;;;;;;;;19.24;41.51;99151.63;4938056;28;98480;-71
2023/03/13 11:59:25;;;;;;;;;;;;;;;19.48;41.28;99145.91;4922316;28;99292;-71
2023/03/13 12:02:11;;;;;;;;;;;;;;;19.77;41.42;99130.94;4939435;28;97905;-70
2023/03/13 12:04:41;;;;;;;;;;;;;;;20.05;41.17;99132.63;4927305;28;98106;-73
2023/03/13 12:07:18;;;;;;;;;;;;;;;20.58;40.72;99130.84;4925966;28;98536;-71
2023/03/13 12:09:49;;;;;;;;;;;;;;;21.51;39.92;99120.47;4909226;28;98316;-73
2023/03/13 12:12:48;;;;;;;;;;;;;;;22.04;39.53;99125.75;4923433;28;97945;-71
2023/03/13 12:15:22;;;;;;;;;;;;;;;22.45;39.85;99110.13;4910418;28;98467;-73
2023/03/13 12:17:51;;;;;;;;;;;;;;;22.99;39.17;99116.81;4908789;28;98136;-72
2023/03/13 12:20:21;;;;;;;;;;;;;;;23.37;39.21;99127.63;4936706;28;97970;-71
2023/03/13 12:22:57;;;;;;;;;;;;;;;23.50;39.77;99124.16;4922008;28;97963;-71
2023/03/13 12:25:38;;;;;;;;;;;;;;;23.54;39.63;99118.69;4939396;28;98248;-71
2023/03/13 12:28:23;;;;;;;;;;;;;;;23.64;39.93;99108.88;4924310;28;98068;-74
2023/03/13 12:31:17;;;;;;;;;;;;;;;23.67;40.26;99106.19;4907352;28;98247;-74
2023/03/13 12:33:45;;;;;;;;;;;;;;;23.77;40.26;99110.13;4917382;28;98071;-72
2023/03/13 12:36:25;;;;;;;;;;;;;;;23.92;40.27;99098.00;4926319;28;98438;-74
2023/03/13 12:39:16;;;;;;;;;;;;;;;24.07;40.23;99090.56;4909786;28;99388;-71
2023/03/13 12:41:43;;;;;;;;;;;;;;;24.30;39.79;99089.41;4922908;28;98009;-73
2023/03/13 12:44:17;;;;;;;;;;;;;;;24.21;40.30;99081.53;4906713;28;98170;-71
2023/03/13 12:46:58;;;;;;;;;;;;;;;24.44;40.13;99086.66;4923638;28;98407;-73
2023/03/13 12:50:02;;;;;;;;;;;;;;;24.56;40.04;99075.25;4908295;28;98020;-74
2023/03/13 12:52:49;;;;;;;;;;;;;;;24.42;40.17;99080.78;4894014;28;97982;-75
2023/03/13 12:55:48;;;;;;;;;;;;;;;24.44;40.47;99097.69;4920712;28;98148;-74
2023/03/13 12:58:43;;;;;;;;;;;;;;;24.29;40.84;99093.31;4906042;28;98380;-74